Time;durP1;ratioP1;P1;durP2;ratioP2;P2;SDS_P1;SDS_P2;PMS_P1;PMS_P2;Temp;Humidity;BMP_temperature;BMP_pressure;BME280_temperature;BME280_humidity;BME280_pressure;Samples;Min_cycle;Max_cycle;Signal;HPM_P1;HPM_P2
2021/12/29 00:01:11;;;;;;;7.75;5.10;;;;;;;8.47;94.45;99152.94;6298444;22;20081;-63
2021/12/29 00:04:15;;;;;;;9.98;5.57;;;;;;;8.45;94.83;99164.41;6299086;22;20480;-64
2021/12/29 00:07:20;;;;;;;7.85;6.47;;;;;;;8.48;94.62;99172.84;6299126;22;20057;-64
2021/12/29 00:10:24;;;;;;;14.02;11.73;;;;;;;8.53;94.64;99176.00;6299505;22;20018;-63
2021/12/29 00:13:28;;;;;;;6.35;4.28;;;;;;;8.51;94.50;99177.84;6299556;22;20149;-64
2021/12/29 00:16:34;;;;;;;9.55;7.78;;;;;;;8.55;94.44;99171.53;6299894;22;20062;-64
2021/12/29 00:19:38;;;;;;;5.82;3.45;;;;;;;8.56;94.14;99172.34;6299216;22;20635;-64
2021/12/29 00:22:41;;;;;;;;;;;;;;;8.47;94.55;99184.19;6299827;22;20064;-64
2021/12/29 00:25:45;;;;;;;4.15;1.60;;;;;;;8.39;95.20;99191.66;6299116;22;20214;-64
2021/12/29 00:28:48;;;;;;;5.72;1.20;;;;;;;8.33;95.15;99198.09;6297586;22;20025;-64
2021/12/29 00:31:51;;;;;;;;;;;;;;;8.33;94.95;99192.06;6300086;22;20582;-64
2021/12/29 00:35:14;;;;;;;2.50;1.27;;;;;;;8.40;94.41;99193.34;6298343;22;19914;-64
2021/12/29 00:38:56;;;;;;;2.25;0.93;;;;;;;8.39;94.00;99191.66;6142864;23;20116;-64
2021/12/29 00:42:19;;;;;;;3.45;1.00;;;;;;;8.38;94.26;99208.22;6158551;22;20488;-64
2021/12/29 00:45:57;;;;;;;10.80;6.80;;;;;;;8.06;95.59;99218.88;6206203;22;20122;-64
2021/12/29 00:49:00;;;;;;;8.70;4.10;;;;;;;8.04;95.66;99222.50;6299133;22;20049;-64
2021/12/29 00:52:06;;;;;;;5.32;3.33;;;;;;;8.13;95.30;99227.97;6299362;22;20113;-64
2021/12/29 00:55:09;;;;;;;5.63;3.83;;;;;;;8.18;94.87;99225.09;6299168;22;20420;-64
2021/12/29 00:58:13;;;;;;;5.55;4.50;;;;;;;8.12;94.47;99233.31;6298732;22;20072;-64
2021/12/29 01:01:16;;;;;;;8.55;5.85;;;;;;;8.14;94.65;99249.66;6298814;22;20100;-64
2021/12/29 01:04:20;;;;;;;;;;;;;;;8.08;95.17;99250.06;6299914;22;20095;-63
2021/12/29 01:07:23;;;;;;;;;;;;;;;8.02;95.12;99261.69;6301664;22;20298;-64
2021/12/29 01:10:27;;;;;;;19.63;16.70;;;;;;;7.92;96.10;99271.00;6299295;22;20378;-64
2021/12/29 01:13:33;;;;;;;;;;;;;;;7.98;95.97;99281.03;6300349;22;20021;-64
2021/12/29 01:16:37;;;;;;;27.88;23.80;;;;;;;8.03;95.53;99297.19;6298856;22;19917;-65
2021/12/29 01:19:41;;;;;;;5.55;3.22;;;;;;;7.90;96.29;99310.09;6298602;22;20026;-65
2021/12/29 01:22:44;;;;;;;13.23;8.25;;;;;;;7.93;95.98;99317.72;6302506;22;20088;-65
2021/12/29 01:25:48;;;;;;;18.95;14.07;;;;;;;8.01;96.32;99326.84;6301032;22;20054;-65
2021/12/29 01:28:51;;;;;;;;;;;;;;;8.00;96.14;99340.78;6301704;22;20022;-65
2021/12/29 01:31:56;;;;;;;4.95;3.42;;;;;;;7.95;96.52;99328.06;6300370;22;20301;-65
2021/12/29 01:34:59;;;;;;;4.05;3.00;;;;;;;8.02;95.79;99339.78;6300669;22;20569;-65
2021/12/29 01:38:04;;;;;;;6.65;3.60;;;;;;;8.15;95.44;99335.47;6299926;22;20107;-65
2021/12/29 01:41:08;;;;;;;5.00;3.20;;;;;;;8.20;94.84;99342.16;6300294;22;20080;-66
2021/12/29 01:44:13;;;;;;;3.25;1.88;;;;;;;8.13;95.25;99358.16;6302372;22;20076;-65
2021/12/29 01:47:27;;;;;;;3.00;1.65;;;;;;;8.16;95.05;99360.59;6282765;22;20095;-65
2021/12/29 01:50:31;;;;;;;1.80;0.80;;;;;;;8.20;94.42;99363.00;6301615;22;20403;-65
2021/12/29 01:53:36;;;;;;;1.92;0.82;;;;;;;8.23;94.11;99370.63;6301081;22;20062;-65
2021/12/29 01:56:40;;;;;;;1.88;0.60;;;;;;;8.24;93.91;99377.53;6301797;22;20045;-65
2021/12/29 01:59:44;;;;;;;3.38;1.10;;;;;;;8.16;93.92;99384.00;6300924;22;20069;-65
2021/12/29 02:02:47;;;;;;;1.92;0.93;;;;;;;8.16;93.98;99378.81;6299872;22;20030;-65
2021/12/29 02:05:52;;;;;;;1.52;0.40;;;;;;;8.14;94.83;99390.28;6300968;22;20022;-67
2021/12/29 02:08:56;;;;;;;2.15;0.95;;;;;;;8.05;94.77;99407.28;6299657;22;20042;-65
2021/12/29 02:12:01;;;;;;;3.85;1.00;;;;;;;7.94;95.88;99409.66;6300945;22;20525;-65
2021/12/29 02:15:08;;;;;;;2.83;0.70;;;;;;;8.02;95.74;99422.25;6301575;22;20026;-65
2021/12/29 02:18:16;;;;;;;3.70;0.52;;;;;;;7.98;96.46;99415.56;6301335;22;20030;-65
2021/12/29 02:21:26;;;;;;;1.35;0.45;;;;;;;8.03;96.02;99416.94;6301381;22;20022;-65
2021/12/29 02:24:42;;;;;;;5.13;1.00;;;;;;;8.06;95.30;99418.53;6301370;22;20026;-65
2021/12/29 02:27:52;;;;;;;1.80;0.65;;;;;;;8.05;95.13;99432.47;6301671;22;20087;-65
2021/12/29 02:30:58;;;;;;;1.35;0.40;;;;;;;7.96;95.55;99433.00;6282078;22;20546;-67
2021/12/29 02:38:20;;;;;;;5.30;0.70;;;;;;;7.96;95.25;99467.69;6300162;22;20108;-65
2021/12/29 02:41:25;;;;;;;4.60;0.65;;;;;;;8.02;94.86;99443.06;6300504;22;20094;-65
2021/12/29 02:44:30;;;;;;;3.20;0.60;;;;;;;8.03;94.83;99458.59;6301051;22;20360;-65
2021/12/29 02:47:33;;;;;;;1.60;0.57;;;;;;;8.05;94.28;99456.75;6301192;22;20058;-65
2021/12/29 02:50:36;;;;;;;1.35;0.52;;;;;;;8.06;94.37;99461.00;6299288;22;20026;-65
2021/12/29 02:53:39;;;;;;;;;;;;;;;8.02;94.15;99467.31;6300370;22;20034;-65
2021/12/29 03:01:29;;;;;;;6.55;0.80;;;;;;;7.81;96.01;99486.78;6297873;22;19964;-65
2021/12/29 03:04:36;;;;;;;3.25;0.50;;;;;;;7.80;96.37;99482.50;6299704;22;20389;-65
2021/12/29 03:07:42;;;;;;;6.47;0.98;;;;;;;7.76;97.18;99476.66;6299780;22;20067;-65
2021/12/29 03:10:52;;;;;;;2.40;0.57;;;;;;;7.83;96.51;99466.72;6300228;22;20041;-65
2021/12/29 03:14:14;;;;;;;3.53;0.85;;;;;;;7.80;96.80;99479.91;6299755;22;20030;-65
2021/12/29 03:17:27;;;;;;;9.27;0.60;;;;;;;7.69;97.29;99494.38;6300326;22;20517;-65
2021/12/29 03:20:53;;;;;;;5.10;0.75;;;;;;;7.76;96.97;99505.28;6299422;22;20084;-66
2021/12/29 03:24:12;;;;;;;1.75;0.40;;;;;;;7.87;96.21;99521.09;6281282;22;20050;-65
2021/12/29 03:27:31;;;;;;;1.42;0.47;;;;;;;7.82;96.31;99530.97;6299759;22;20076;-65
2021/12/29 03:30:50;;;;;;;2.25;0.80;;;;;;;7.88;95.99;99524.53;6299466;22;20026;-65
2021/12/29 03:33:58;;;;;;;3.20;1.10;;;;;;;7.91;95.74;99513.94;6298796;22;20439;-65
2021/12/29 03:37:10;;;;;;;5.45;0.50;;;;;;;7.91;95.07;99504.41;6300457;22;20318;-65
2021/12/29 03:40:26;;;;;;;4.97;0.50;;;;;;;7.92;95.32;99505.25;6280585;22;20089;-65
2021/12/29 03:43:40;;;;;;;0.98;0.20;;;;;;;8.01;94.86;99522.94;6300163;22;20037;-65
2021/12/29 03:47:08;;;;;;;1.40;0.50;;;;;;;8.03;94.91;99534.06;6299189;22;20072;-65
2021/12/29 03:50:27;;;;;;;1.55;0.50;;;;;;;8.05;94.13;99550.47;6299363;22;20053;-65
2021/12/29 03:53:39;;;;;;;2.10;0.40;;;;;;;7.91;95.03;99547.78;6300119;22;20057;-65
2021/12/29 03:57:04;;;;;;;1.60;0.40;;;;;;;8.03;94.60;99544.50;6298942;22;20065;-67
2021/12/29 04:00:21;;;;;;;2.13;0.40;;;;;;;8.01;94.51;99541.16;6298679;22;20440;-65
2021/12/29 04:03:37;;;;;;;3.30;0.30;;;;;;;7.97;93.52;99560.47;6299093;22;20030;-65
2021/12/29 04:07:09;;;;;;;1.02;0.40;;;;;;;8.07;93.26;99553.81;6298670;22;20025;-66
2021/12/29 04:10:35;;;;;;;2.38;0.50;;;;;;;8.08;93.11;99558.09;6299666;22;20026;-65
2021/12/29 04:13:48;;;;;;;1.35;0.30;;;;;;;7.88;93.06;99568.78;6299063;22;20034;-65
2021/12/29 04:17:12;;;;;;;2.58;1.15;;;;;;;7.95;92.42;99571.91;6300208;22;20058;-65
2021/12/29 04:21:01;;;;;;;5.20;0.38;;;;;;;7.92;92.53;99578.13;6299885;22;20096;-65
2021/12/29 04:24:26;;;;;;;2.42;0.40;;;;;;;7.88;92.81;99584.41;6299695;22;20045;-65
2021/12/29 04:27:41;;;;;;;5.95;0.38;;;;;;;7.90;93.48;99586.00;6298949;22;20380;-67
2021/12/29 04:30:49;;;;;;;1.73;0.35;;;;;;;7.95;91.28;99595.34;6298873;22;20049;-65
2021/12/29 04:33:53;;;;;;;2.40;0.30;;;;;;;8.14;90.70;99611.59;6299695;22;20467;-65
2021/12/29 04:36:58;;;;;;;0.73;0.30;;;;;;;8.12;88.46;99603.03;6298923;22;20464;-65
2021/12/29 04:40:07;;;;;;;1.00;0.35;;;;;;;8.32;85.75;99618.34;6300184;22;20080;-65
2021/12/29 04:43:12;;;;;;;1.33;0.20;;;;;;;8.31;86.91;99626.25;6299233;22;20068;-65
2021/12/29 04:46:19;;;;;;;2.42;0.38;;;;;;;8.25;88.74;99631.81;6297740;22;20072;-65
2021/12/29 04:49:41;;;;;;;1.23;0.30;;;;;;;8.22;89.53;99643.22;6279157;22;20077;-66
2021/12/29 04:52:57;;;;;;;1.73;0.32;;;;;;;8.08;89.67;99649.22;6299477;22;20096;-65
2021/12/29 04:56:17;;;;;;;2.42;0.57;;;;;;;8.12;87.10;99653.31;6300018;22;20529;-65
2021/12/29 04:59:35;;;;;;;1.63;0.40;;;;;;;8.25;87.64;99668.25;6300596;22;20704;-65
2021/12/29 05:03:03;;;;;;;2.28;0.40;;;;;;;8.12;89.60;99668.94;6301094;22;20056;-65
2021/12/29 05:11:01;;;;;;;1.98;0.20;;;;;;;8.14;90.60;99685.34;6239367;23;20085;-65
2021/12/29 05:14:04;;;;;;;4.13;0.38;;;;;;;8.02;88.94;99687.78;6236233;23;20088;-65
2021/12/29 05:17:08;;;;;;;1.27;0.30;;;;;;;7.99;88.54;99683.56;6238759;23;20077;-65
2021/12/29 05:20:12;;;;;;;1.83;0.30;;;;;;;8.09;86.55;99689.94;6238578;23;20061;-65
2021/12/29 05:23:15;;;;;;;2.28;0.32;;;;;;;8.07;86.72;99697.03;6239195;23;20027;-65
2021/12/29 05:26:19;;;;;;;2.50;0.45;;;;;;;8.05;87.28;99682.41;6238179;23;20461;-65
2021/12/29 05:29:22;;;;;;;;;;;;;;;8.03;87.07;99689.44;6239260;23;20493;-65
2021/12/29 05:32:25;;;;;;;1.67;0.40;;;;;;;8.01;87.55;99692.16;6238775;23;20386;-65
2021/12/29 05:35:29;;;;;;;2.45;0.40;;;;;;;7.98;87.97;99696.69;6238498;23;20058;-65
2021/12/29 05:38:32;;;;;;;2.42;0.50;;;;;;;8.03;88.82;99700.69;6238476;23;20395;-65
2021/12/29 05:41:35;;;;;;;1.88;0.60;;;;;;;7.99;88.43;99707.00;6239451;23;20027;-65
2021/12/29 05:44:39;;;;;;;3.78;0.40;;;;;;;7.98;88.30;99709.72;6238070;23;20031;-65
2021/12/29 05:47:43;;;;;;;;;;;;;;;7.95;88.81;99715.91;6239183;23;20236;-65
2021/12/29 05:50:46;;;;;;;1.45;0.50;;;;;;;7.98;89.44;99718.34;6239213;23;19977;-65
2021/12/29 05:53:50;;;;;;;2.72;0.52;;;;;;;8.05;89.96;99716.25;6239839;23;20530;-65
2021/12/29 05:56:53;;;;;;;6.28;4.10;;;;;;;8.06;89.62;99731.78;6239321;23;20050;-66
2021/12/29 05:59:56;;;;;;;22.23;19.33;;;;;;;8.10;89.82;99733.31;6240389;23;20150;-65
2021/12/29 06:03:00;;;;;;;;;;;;;;;8.14;89.90;99740.03;6241606;23;20031;-65
2021/12/29 06:06:03;;;;;;;3.13;1.73;;;;;;;7.99;91.32;99740.00;6239632;23;20403;-65
2021/12/29 06:09:07;;;;;;;6.05;2.20;;;;;;;8.04;91.31;99744.06;6256157;22;20114;-65
2021/12/29 06:12:11;;;;;;;7.18;3.15;;;;;;;8.08;90.72;99745.56;6269567;22;20034;-65
2021/12/29 06:15:14;;;;;;;;;;;;;;;8.10;90.43;99737.66;6271245;22;20394;-65
2021/12/29 06:18:17;;;;;;;2.33;0.90;;;;;;;8.05;90.67;99750.94;6267616;22;20348;-65
2021/12/29 06:21:21;;;;;;;3.47;0.70;;;;;;;7.97;91.11;99753.09;6270521;22;20085;-65
2021/12/29 06:24:24;;;;;;;;;;;;;;;7.90;91.82;99762.16;6270098;22;20081;-65
2021/12/29 06:27:28;;;;;;;2.40;1.30;;;;;;;7.93;91.63;99770.66;6250301;22;20264;-65
2021/12/29 06:30:32;;;;;;;5.88;1.30;;;;;;;8.00;91.23;99772.91;6269978;22;20018;-65
2021/12/29 06:33:35;;;;;;;1.65;0.73;;;;;;;7.79;92.16;99780.13;6270614;22;20026;-65
2021/12/29 06:36:40;;;;;;;;;;;;;;;7.72;92.79;99797.78;6271560;22;20533;-65
2021/12/29 06:39:45;;;;;;;3.80;1.20;;;;;;;7.83;92.07;99795.50;6270187;22;19917;-65
2021/12/29 06:42:48;;;;;;;6.68;2.53;;;;;;;7.82;91.96;99792.97;6269568;22;20519;-65
2021/12/29 06:45:52;;;;;;;3.63;2.42;;;;;;;7.86;91.90;99799.69;6269281;22;20050;-65
2021/12/29 06:48:55;;;;;;;;;;;;;;;7.65;92.64;99797.28;6270500;22;20018;-65
2021/12/29 06:52:00;;;;;;;4.35;1.30;;;;;;;7.73;92.20;99799.50;6270611;22;19934;-65
2021/12/29 06:55:03;;;;;;;2.58;1.20;;;;;;;7.83;90.82;99805.91;6270415;22;20081;-65
2021/12/29 06:58:07;;;;;;;2.28;0.85;;;;;;;7.90;90.66;99809.00;6270194;22;20104;-65
2021/12/29 07:01:12;;;;;;;8.15;1.15;;;;;;;7.88;90.67;99816.06;6269792;22;20434;-65
2021/12/29 07:04:16;;;;;;;7.20;0.98;;;;;;;7.89;90.56;99818.59;6269209;22;20058;-66
2021/12/29 07:07:19;;;;;;;5.32;1.15;;;;;;;7.90;90.18;99816.81;6265516;22;20357;-66
2021/12/29 07:10:23;;;;;;;;;;;;;;;7.61;92.08;99821.78;6206501;23;20023;-65
2021/12/29 07:13:26;;;;;;;4.57;1.20;;;;;;;7.65;92.16;99819.84;6205871;23;20344;-65
2021/12/29 07:16:31;;;;;;;6.93;1.75;;;;;;;7.68;92.35;99830.94;6204539;23;20054;-65
2021/12/29 07:19:34;;;;;;;3.92;1.50;;;;;;;7.69;92.22;99847.41;6205258;23;20098;-65
2021/12/29 07:22:38;;;;;;;3.97;2.10;;;;;;;7.66;92.04;99847.56;6204127;23;20063;-65
2021/12/29 07:25:41;;;;;;;8.85;2.85;;;;;;;7.61;92.44;99846.97;6204782;23;20027;-65
2021/12/29 07:28:44;;;;;;;;;;;;;;;7.65;91.95;99857.13;6205446;23;20464;-66
2021/12/29 07:31:48;;;;;;;5.30;1.90;;;;;;;7.52;92.57;99866.47;6206684;23;19958;-65
2021/12/29 07:34:52;;;;;;;4.20;1.55;;;;;;;7.43;93.29;99861.72;6205692;23;20036;-65
2021/12/29 07:37:55;;;;;;;3.22;1.20;;;;;;;7.47;93.52;99863.28;6205844;23;20030;-65
2021/12/29 07:40:58;;;;;;;;;;;;;;;7.34;93.69;99875.19;6207944;23;20035;-66
2021/12/29 07:44:04;;;;;;;10.55;7.32;;;;;;;7.38;93.72;99879.34;6208505;23;19959;-65
2021/12/29 07:47:07;;;;;;;14.27;11.55;;;;;;;7.52;93.22;99876.88;6209026;23;20023;-66
2021/12/29 07:50:11;;;;;;;11.68;8.07;;;;;;;7.59;92.58;99885.22;6209085;23;20028;-66
2021/12/29 07:53:14;;;;;;;18.08;9.05;;;;;;;7.56;92.36;99896.63;6209196;23;20504;-65
2021/12/29 07:56:17;;;;;;;7.20;4.22;;;;;;;7.57;92.00;99900.91;6210319;23;20081;-65
2021/12/29 07:59:20;;;;;;;3.28;2.00;;;;;;;7.66;92.15;99902.22;6208902;23;20047;-65
2021/12/29 08:02:27;;;;;;;1.90;0.90;;;;;;;7.56;92.28;99903.56;6208878;23;20084;-66
2021/12/29 08:05:31;;;;;;;3.63;1.75;;;;;;;7.58;91.79;99899.97;6208646;23;20086;-65
2021/12/29 08:08:33;;;;;;;;;;;;;;;7.60;91.90;99894.72;6225102;22;20103;-65
2021/12/29 08:23:47;;;;;;;5.28;2.70;;;;;;;7.39;93.29;99915.66;5517438;22;18773085;-67
2021/12/29 08:26:50;;;;;;;4.72;1.70;;;;;;;7.43;92.79;99918.94;6340046;22;20025;-67
2021/12/29 08:29:54;;;;;;;5.18;1.35;;;;;;;7.51;92.53;99932.44;6339289;22;20458;-68
2021/12/29 08:32:58;;;;;;;3.92;0.95;;;;;;;7.53;92.49;99941.00;6333400;22;20493;-67
2021/12/29 08:36:01;;;;;;;;;;;;;;;7.53;92.42;99935.81;6334246;22;20030;-67
2021/12/29 08:39:04;;;;;;;4.32;1.10;;;;;;;7.59;91.99;99947.66;6331922;22;20381;-67
2021/12/29 08:42:13;;;;;;;4.40;1.10;;;;;;;7.58;92.09;99953.78;6335369;22;20025;-70
2021/12/29 08:45:21;;;;;;;3.22;1.20;;;;;;;7.61;91.85;99958.84;6321252;22;20355;-67
2021/12/29 08:51:35;;;;;;;2.45;1.17;;;;;;;7.81;91.37;99956.06;6339292;22;20033;-67
2021/12/29 08:54:38;;;;;;;;;;;;;;;7.83;90.91;99948.22;6374651;22;20488;-66
2021/12/29 08:57:42;;;;;;;11.07;5.57;;;;;;;7.85;91.16;99941.19;6370251;22;19962;-66
2021/12/29 09:00:45;;;;;;;4.55;2.63;;;;;;;7.83;91.38;99943.00;6373319;22;20071;-66
2021/12/29 09:03:48;;;;;;;;;;;;;;;7.81;91.18;99945.66;6372380;22;20125;-66
2021/12/29 09:06:53;;;;;;;3.70;2.03;;;;;;;7.82;91.43;99951.75;6371132;22;20272;-66
2021/12/29 09:09:56;;;;;;;4.95;2.38;;;;;;;7.79;91.78;99941.47;6378370;22;20021;-67
2021/12/29 09:12:59;;;;;;;;;;;;;;;7.76;92.01;99947.69;6379050;22;20465;-66
2021/12/29 09:16:04;;;;;;;5.40;2.72;;;;;;;7.77;92.01;99953.72;6378834;22;19959;-66
2021/12/29 09:19:11;;;;;;;4.88;2.45;;;;;;;7.87;91.95;99960.16;6378676;22;20057;-67
2021/12/29 09:22:15;;;;;;;8.73;3.55;;;;;;;7.92;91.39;99947.75;6378624;22;20021;-67
2021/12/29 09:25:20;;;;;;;6.20;3.65;;;;;;;7.89;91.57;99953.13;6371412;22;20021;-66
2021/12/29 09:28:24;;;;;;;23.80;16.75;;;;;;;7.89;91.85;99955.72;6371130;22;20363;-66
2021/12/29 09:31:27;;;;;;;;;;;;;;;7.86;92.83;99954.09;6371532;22;20155;-66
2021/12/29 09:34:35;;;;;;;14.15;7.50;;;;;;;7.97;92.16;99961.34;6371118;22;19913;-67
2021/12/29 09:37:39;;;;;;;8.18;5.50;;;;;;;7.88;92.84;99967.03;6371070;22;20078;-67
2021/12/29 09:40:43;;;;;;;14.55;6.90;;;;;;;7.98;91.55;99962.22;6370834;22;20086;-67
2021/12/29 09:43:47;;;;;;;10.40;7.57;;;;;;;8.04;92.29;99967.97;6370998;22;20086;-67
2021/12/29 09:46:54;;;;;;;10.40;7.38;;;;;;;8.12;92.32;99977.97;6370923;22;20083;-67
2021/12/29 09:50:01;;;;;;;7.43;4.43;;;;;;;8.20;91.80;99974.97;6369820;22;20037;-67
2021/12/29 09:53:06;;;;;;;14.13;7.63;;;;;;;8.32;91.40;99974.34;6338932;22;20071;-66
2021/12/29 09:56:10;;;;;;;16.98;9.93;;;;;;;8.33;91.23;99974.28;6339091;22;20098;-66
2021/12/29 09:59:13;;;;;;;18.95;11.60;;;;;;;8.46;91.05;99977.13;6339229;22;20380;-66
2021/12/29 10:02:17;;;;;;;25.63;16.00;;;;;;;8.35;91.27;99966.38;6338908;22;20029;-67
2021/12/29 10:05:20;;;;;;;;;;;;;;;8.38;91.31;99966.25;6339684;22;20026;-67
2021/12/29 10:08:29;;;;;;;14.65;8.35;;;;;;;8.46;90.93;99969.31;6339151;22;19960;-67
2021/12/29 10:11:36;;;;;;;10.75;5.60;;;;;;;8.50;90.86;99965.59;6338894;22;20068;-67
2021/12/29 10:14:39;;;;;;;7.78;5.28;;;;;;;8.63;90.44;99963.19;6339063;22;20045;-67
2021/12/29 10:17:43;;;;;;;11.95;3.85;;;;;;;8.61;89.30;99960.69;6332016;22;20087;-69
2021/12/29 10:20:49;;;;;;;;;;;;;;;8.67;89.42;99966.47;6332808;22;20042;-67
2021/12/29 10:23:54;;;;;;;10.38;5.10;;;;;;;8.69;90.24;99956.81;6330624;22;19913;-67
2021/12/29 10:26:58;;;;;;;24.95;16.08;;;;;;;8.78;89.60;99965.00;6333641;22;20356;-67
2021/12/29 10:30:26;;;;;;;17.85;7.55;;;;;;;8.73;89.57;99955.72;6336912;22;20022;-67
2021/12/29 10:33:43;;;;;;;9.98;5.47;;;;;;;8.73;88.32;99964.38;6336062;22;20467;-66
2021/12/29 10:36:56;;;;;;;5.78;2.03;;;;;;;8.64;87.30;99953.59;6333413;22;20029;-66
2021/12/29 10:39:59;;;;;;;9.05;3.33;;;;;;;8.73;87.40;99956.56;6336352;22;20029;-67
2021/12/29 10:43:03;;;;;;;;;;;;;;;8.78;87.33;99954.56;6332608;22;20018;-67
2021/12/29 10:46:18;;;;;;;11.65;5.93;;;;;;;8.78;84.80;99956.34;6331824;22;20345;-67
2021/12/29 10:49:22;;;;;;;10.73;4.10;;;;;;;8.87;84.15;99963.66;6331014;22;20025;-67
2021/12/29 10:52:29;;;;;;;11.55;4.15;;;;;;;8.97;84.23;99962.22;6331343;22;20025;-67
2021/12/29 10:55:35;;;;;;;8.40;3.08;;;;;;;8.99;84.65;99955.16;6326464;22;20029;-67
2021/12/29 10:58:39;;;;;;;7.13;2.03;;;;;;;9.02;82.90;99960.19;6331150;22;20359;-67
2021/12/29 11:04:58;;;;;;;52.90;31.27;;;;;;;9.07;82.47;99945.16;6350607;22;20022;-65
2021/12/29 11:08:10;;;;;;;35.42;24.08;;;;;;;9.06;81.71;99940.88;6362069;22;20064;-65
2021/12/29 11:11:13;;;;;;;24.20;18.67;;;;;;;9.07;81.94;99952.13;6362401;22;20032;-65
2021/12/29 11:14:21;;;;;;;12.25;7.20;;;;;;;9.07;84.68;99952.13;6361928;22;20025;-66
2021/12/29 11:17:26;;;;;;;9.20;3.42;;;;;;;8.92;82.63;99945.97;6362861;22;20074;-66
2021/12/29 11:20:31;;;;;;;10.95;7.20;;;;;;;8.88;82.22;99948.84;6362072;22;20025;-65
2021/12/29 11:23:41;;;;;;;6.95;2.92;;;;;;;8.94;80.41;99954.56;6362630;22;20020;-65
2021/12/29 11:26:45;;;;;;;13.27;5.32;;;;;;;9.04;83.19;99955.75;6362471;22;20343;-65
2021/12/29 11:30:02;;;;;;;11.50;5.38;;;;;;;9.07;83.97;99954.75;6362984;22;20470;-65
2021/12/29 11:33:10;;;;;;;11.13;3.25;;;;;;;9.13;85.28;99945.75;6361716;22;20021;-65
2021/12/29 11:36:21;;;;;;;18.67;12.55;;;;;;;9.21;83.59;99940.94;6361559;22;20524;-65
2021/12/29 11:39:24;;;;;;;20.35;13.60;;;;;;;9.26;82.56;99950.19;6361472;22;20091;-65
2021/12/29 11:42:28;;;;;;;26.23;20.90;;;;;;;9.29;80.64;99946.56;6360967;22;20087;-65
2021/12/29 11:45:31;;;;;;;8.27;4.40;;;;;;;9.45;83.39;99942.16;6361570;22;20063;-66
2021/12/29 11:48:34;;;;;;;9.95;6.55;;;;;;;9.38;82.79;99948.66;6362334;22;20178;-65
2021/12/29 11:51:47;;;;;;;;;;;;;;;9.40;81.96;99954.63;6360984;22;20367;-65
2021/12/29 11:55:05;;;;;;;7.07;1.90;;;;;;;9.53;83.93;99949.53;6361854;22;19933;-63
2021/12/29 11:58:24;;;;;;;19.42;14.20;;;;;;;9.61;79.82;99954.34;6361400;22;20071;-61
2021/12/29 12:01:31;;;;;;;6.40;2.90;;;;;;;9.57;78.89;99971.91;6360832;22;20049;-66
2021/12/29 12:04:35;;;;;;;6.40;2.25;;;;;;;9.47;78.43;99969.00;6333159;22;20482;-65
2021/12/29 12:07:40;;;;;;;14.15;9.70;;;;;;;9.44;77.60;99968.31;6329396;22;20106;-66
2021/12/29 12:10:44;;;;;;;88.20;57.80;;;;;;;9.46;77.11;99982.16;6330608;22;20025;-66
2021/12/29 12:13:47;;;;;;;20.33;14.50;;;;;;;9.42;76.71;99981.47;6330795;22;20371;-65
2021/12/29 12:16:54;;;;;;;;;;;;;;;9.48;77.41;99975.91;6328800;22;20076;-66
2021/12/29 12:20:06;;;;;;;7.07;3.47;;;;;;;9.36;77.42;99974.00;6329833;22;19932;-65
2021/12/29 12:23:24;;;;;;;7.87;1.77;;;;;;;9.32;78.46;99975.09;6330536;22;20076;-64
2021/12/29 12:26:27;;;;;;;4.40;1.40;;;;;;;9.30;78.03;99967.34;6329964;22;20025;-66
2021/12/29 12:29:33;;;;;;;10.20;2.38;;;;;;;9.34;77.56;99954.97;6331081;22;20029;-70
2021/12/29 12:32:57;;;;;;;6.25;1.30;;;;;;;9.53;79.66;99936.50;6330055;22;20091;-66
2021/12/29 12:36:07;;;;;;;6.85;1.67;;;;;;;9.61;80.67;99928.25;6329278;22;20124;-67
2021/12/29 12:39:13;;;;;;;13.95;4.35;;;;;;;9.47;80.13;99926.41;6329795;22;20022;-67
2021/12/29 12:42:17;;;;;;;9.82;3.20;;;;;;;9.54;81.25;99931.19;6331284;22;20064;-66
2021/12/29 12:45:22;;;;;;;10.07;2.92;;;;;;;9.58;82.90;99947.53;6331960;22;20110;-66
2021/12/29 12:48:32;;;;;;;11.55;2.88;;;;;;;9.64;82.70;99964.59;6330959;22;20360;-66
2021/12/29 12:51:35;;;;;;;9.65;2.33;;;;;;;9.66;82.74;99962.72;6330427;22;20471;-66
2021/12/29 12:54:49;;;;;;;7.30;2.58;;;;;;;9.70;84.60;99959.00;6328795;22;20028;-66
2021/12/29 12:58:05;;;;;;;8.35;1.70;;;;;;;9.60;84.89;99961.31;6329468;22;20026;-66
2021/12/29 13:01:18;;;;;;;6.80;2.20;;;;;;;9.54;84.64;99953.84;6336902;22;20033;-66
2021/12/29 13:04:24;;;;;;;8.95;3.08;;;;;;;9.51;85.16;99959.25;6330763;22;20424;-67
2021/12/29 13:07:29;;;;;;;10.82;2.67;;;;;;;9.40;85.92;99961.59;6330232;22;20037;-67
2021/12/29 13:11:01;;;;;;;6.68;2.60;;;;;;;9.50;86.11;99952.31;6331770;22;20027;-66
2021/12/29 13:14:06;;;;;;;6.75;1.90;;;;;;;9.41;85.91;99948.50;6332420;22;20478;-66
2021/12/29 13:17:15;;;;;;;6.47;1.60;;;;;;;9.47;85.80;99948.13;6331684;22;20030;-67
2021/12/29 13:20:18;;;;;;;5.60;1.92;;;;;;;9.51;85.97;99939.22;6332029;22;20388;-66
2021/12/29 13:23:21;;;;;;;6.15;1.70;;;;;;;9.44;87.22;99950.91;6330361;22;20359;-66
2021/12/29 13:26:27;;;;;;;;;;;;;;;9.49;87.17;99955.88;6331705;22;20095;-67
2021/12/29 13:29:30;;;;;;;8.45;2.00;;;;;;;9.47;86.54;99966.38;6331417;22;19958;-67
2021/12/29 13:32:34;;;;;;;8.82;3.60;;;;;;;9.51;86.89;99967.91;6331937;22;20022;-67
2021/12/29 13:35:41;;;;;;;12.75;6.40;;;;;;;9.48;86.88;99957.66;6331929;22;20057;-67
2021/12/29 13:38:45;;;;;;;10.75;4.88;;;;;;;9.61;86.28;99964.78;6332829;22;20459;-66
2021/12/29 13:41:48;;;;;;;10.20;5.10;;;;;;;9.50;86.89;99971.44;6332926;22;20530;-66
2021/12/29 13:44:54;;;;;;;;;;;;;;;9.43;87.55;99967.50;6333046;22;20127;-67
2021/12/29 13:47:57;;;;;;;11.23;4.13;;;;;;;9.49;87.49;99972.38;6331790;22;19917;-66
2021/12/29 13:51:04;;;;;;;9.63;2.38;;;;;;;9.48;87.07;99970.69;6330732;22;20026;-66
2021/12/29 13:54:11;;;;;;;10.70;2.55;;;;;;;9.50;86.78;99970.59;6330733;22;20091;-66
2021/12/29 13:57:21;;;;;;;8.82;3.92;;;;;;;9.49;87.53;99950.66;6331393;22;20075;-67
2021/12/29 14:00:27;;;;;;;11.70;3.85;;;;;;;9.16;88.57;99951.63;6330871;22;20347;-66
2021/12/29 14:03:35;;;;;;;11.18;2.42;;;;;;;9.24;88.73;99943.38;6331498;22;20478;-66
2021/12/29 14:06:38;;;;;;;6.78;1.63;;;;;;;9.31;89.15;99942.09;6330870;22;20053;-66
2021/12/29 14:09:41;;;;;;;;;;;;;;;9.27;88.80;99948.41;6330920;22;20076;-66
2021/12/29 14:12:44;;;;;;;5.40;2.15;;;;;;;9.35;88.35;99943.63;6331541;22;20122;-67
2021/12/29 14:15:49;;;;;;;;;;;;;;;9.40;88.39;99936.34;6330773;22;20107;-64
2021/12/29 14:18:55;;;;;;;19.67;2.22;;;;;;;9.29;88.57;99933.53;6330726;22;19920;-64
2021/12/29 14:21:59;;;;;;;10.18;1.55;;;;;;;9.25;88.90;99932.88;6329449;22;20017;-64
2021/12/29 14:25:11;;;;;;;7.55;1.13;;;;;;;9.25;89.13;99937.22;6330728;22;20025;-64
2021/12/29 14:28:22;;;;;;;8.52;2.83;;;;;;;9.26;89.08;99938.91;6330640;22;20050;-64
2021/12/29 14:31:37;;;;;;;20.13;5.95;;;;;;;9.25;89.34;99942.44;6330000;22;20140;-64
2021/12/29 14:34:46;;;;;;;11.38;6.25;;;;;;;9.25;89.44;99943.28;6329618;22;20367;-66
2021/12/29 14:37:50;;;;;;;32.38;16.05;;;;;;;9.21;89.51;99948.75;6330772;22;20547;-64
2021/12/29 14:41:20;;;;;;;37.38;20.00;;;;;;;9.21;89.77;99940.94;6331155;22;20021;-65
2021/12/29 14:44:23;;;;;;;22.95;11.65;;;;;;;9.21;89.60;99940.94;6329364;22;20083;-64
2021/12/29 14:47:28;;;;;;;13.80;6.80;;;;;;;9.20;89.75;99929.66;6331562;22;20025;-64
2021/12/29 14:50:38;;;;;;;23.70;5.60;;;;;;;9.18;89.98;99935.88;6331207;22;20642;-64
2021/12/29 14:53:41;;;;;;;12.25;3.88;;;;;;;9.17;90.07;99935.03;6331312;22;20401;-65
2021/12/29 14:56:53;;;;;;;;;;;;;;;9.08;90.77;99923.34;6331393;22;20711;-65
2021/12/29 15:00:19;;;;;;;9.55;4.32;;;;;;;9.11;90.93;99921.50;6331264;22;19933;-65
2021/12/29 15:03:22;;;;;;;7.72;2.92;;;;;;;9.19;90.48;99924.50;6346373;22;20094;-64
2021/12/29 15:06:32;;;;;;;7.75;3.50;;;;;;;9.19;90.56;99927.13;6330981;22;20360;-64
2021/12/29 15:09:36;;;;;;;8.70;2.78;;;;;;;9.14;90.61;99929.16;6330079;22;20026;-64
2021/12/29 15:12:43;;;;;;;10.75;1.95;;;;;;;9.13;90.49;99927.50;6330794;22;20029;-65
2021/12/29 15:15:48;;;;;;;7.18;2.08;;;;;;;9.08;90.72;99923.34;6332030;22;20045;-65
2021/12/29 15:18:51;;;;;;;10.60;1.90;;;;;;;9.03;91.11;99917.56;6331252;22;20352;-64
2021/12/29 15:21:55;;;;;;;;;;;;;;;9.01;91.00;99924.63;6331492;22;20297;-64
2021/12/29 15:24:58;;;;;;;5.45;2.15;;;;;;;8.97;91.06;99912.69;6331425;22;19910;-65
2021/12/29 15:28:05;;;;;;;6.38;1.48;;;;;;;8.99;90.81;99917.81;6330773;22;20096;-64
2021/12/29 15:31:11;;;;;;;5.40;1.15;;;;;;;8.99;90.97;99921.25;6330235;22;20026;-64